Terminal Aerodrome Forecast
Issued by NWS

Home | Current Version | Previous Version | Text Only | Print | Product List | Glossary On
Versions: 1 2 3 4 5 6 7 8 9 10 11 12 13 14 15 16 17 18
712
FTUS43 KGRR 012340
TAFBTL
TAF
KBTL 012340Z 0200/0224 04008KT P6SM OVC007
     FM020300 04010KT 6SM -RA BR OVC007
     FM021500 05008KT P6SM BKN015
     FM021700 02010KT P6SM OVC025
     FM021900 05008KT P6SM BKN035=

USA.gov is the U.S. government's official web portal to all federal, state and local government web resources and services.